sensor_id;sensor_type;location;lat;lon;timestamp;pressure;altitude;pressure_sealevel;temperature;humidity
9035;BME280;4552;43.422;24.592;2023-10-13T00:01:34;100273.75;;;11.70;92.66
9035;BME280;4552;43.422;24.592;2023-10-13T00:04:01;100278.31;;;11.51;93.47
9035;BME280;4552;43.422;24.592;2023-10-13T00:06:31;100286.00;;;11.68;92.99
9035;BME280;4552;43.422;24.592;2023-10-13T00:08:58;100275.56;;;11.62;92.99
9035;BME280;4552;43.422;24.592;2023-10-13T00:11:25;100272.97;;;11.60;92.88
9035;BME280;4552;43.422;24.592;2023-10-13T00:23:59;100281.25;;;11.26;96.78
9035;BME280;4552;43.422;24.592;2023-10-13T00:26:28;100273.47;;;11.18;96.48
9035;BME280;4552;43.422;24.592;2023-10-13T00:35:42;100280.44;;;11.18;95.25
9035;BME280;4552;43.422;24.592;2023-10-13T00:38:10;100290.91;;;11.19;95.73
9035;BME280;4552;43.422;24.592;2023-10-13T00:40:43;100286.47;;;11.26;96.21
9035;BME280;4552;43.422;24.592;2023-10-13T00:53:29;100289.16;;;11.20;97.51
9035;BME280;4552;43.422;24.592;2023-10-13T00:56:00;100274.50;;;11.01;97.13
9035;BME280;4552;43.422;24.592;2023-10-13T00:58:32;100297.16;;;11.08;97.55
9035;BME280;4552;43.422;24.592;2023-10-13T01:01:01;100285.94;;;10.95;97.85
9035;BME280;4552;43.422;24.592;2023-10-13T01:03:42;100282.38;;;11.01;98.52
9035;BME280;4552;43.422;24.592;2023-10-13T01:06:09;100288.44;;;11.06;98.86
9035;BME280;4552;43.422;24.592;2023-10-13T01:08:37;100291.09;;;11.03;97.81
9035;BME280;4552;43.422;24.592;2023-10-13T01:11:06;100297.03;;;11.18;97.19
9035;BME280;4552;43.422;24.592;2023-10-13T01:20:16;100299.91;;;10.94;98.82
9035;BME280;4552;43.422;24.592;2023-10-13T01:22:50;100264.22;;;10.83;97.14
9035;BME280;4552;43.422;24.592;2023-10-13T01:25:23;100283.31;;;10.94;96.31
9035;BME280;4552;43.422;24.592;2023-10-13T01:27:54;100277.19;;;10.93;97.59
9035;BME280;4552;43.422;24.592;2023-10-13T01:43:50;100274.59;;;10.92;96.29
9035;BME280;4552;43.422;24.592;2023-10-13T01:46:16;100276.28;;;10.99;97.05
9035;BME280;4552;43.422;24.592;2023-10-13T01:48:47;100275.44;;;10.95;98.46
9035;BME280;4552;43.422;24.592;2023-10-13T01:51:13;100279.78;;;10.98;99.30
9035;BME280;4552;43.422;24.592;2023-10-13T01:53:40;100277.06;;;11.05;97.66
9035;BME280;4552;43.422;24.592;2023-10-13T01:56:07;100270.25;;;10.91;96.88
9035;BME280;4552;43.422;24.592;2023-10-13T01:58:40;100269.47;;;10.80;97.59
9035;BME280;4552;43.422;24.592;2023-10-13T02:01:14;100269.50;;;10.77;98.67
9035;BME280;4552;43.422;24.592;2023-10-13T02:03:52;100272.09;;;10.81;98.32
9035;BME280;4552;43.422;24.592;2023-10-13T02:06:26;100264.38;;;10.65;98.71
9035;BME280;4552;43.422;24.592;2023-10-13T02:08:58;100257.44;;;10.62;99.21
9035;BME280;4552;43.422;24.592;2023-10-13T02:11:29;100268.72;;;10.69;99.76
9035;BME280;4552;43.422;24.592;2023-10-13T02:13:56;100282.72;;;10.65;98.91
9035;BME280;4552;43.422;24.592;2023-10-13T02:16:24;100277.63;;;10.49;98.48
9035;BME280;4552;43.422;24.592;2023-10-13T02:18:51;100278.44;;;10.51;98.68
9035;BME280;4552;43.422;24.592;2023-10-13T02:21:17;100273.22;;;10.51;98.18
9035;BME280;4552;43.422;24.592;2023-10-13T02:23:44;100273.31;;;10.39;97.53
9035;BME280;4552;43.422;24.592;2023-10-13T02:26:11;100285.56;;;10.39;99.62
9035;BME280;4552;43.422;24.592;2023-10-13T02:39:15;100278.59;;;10.33;100.00
9035;BME280;4552;43.422;24.592;2023-10-13T02:41:42;100279.47;;;10.32;100.00
9035;BME280;4552;43.422;24.592;2023-10-13T02:44:13;100276.88;;;10.32;100.00
9035;BME280;4552;43.422;24.592;2023-10-13T02:46:52;100283.88;;;10.27;100.00
9035;BME280;4552;43.422;24.592;2023-10-13T02:49:21;100262.94;;;10.27;100.00
9035;BME280;4552;43.422;24.592;2023-10-13T02:51:47;100278.56;;;10.36;100.00
9035;BME280;4552;43.422;24.592;2023-10-13T02:54:15;100262.09;;;10.27;100.00
9035;BME280;4552;43.422;24.592;2023-10-13T02:56:44;100268.97;;;10.37;100.00
9035;BME280;4552;43.422;24.592;2023-10-13T02:59:15;100282.97;;;10.36;100.00
9035;BME280;4552;43.422;24.592;2023-10-13T03:01:45;100278.56;;;10.36;100.00
9035;BME280;4552;43.422;24.592;2023-10-13T03:04:13;100284.69;;;10.35;100.00
9035;BME280;4552;43.422;24.592;2023-10-13T03:06:39;100276.78;;;10.41;100.00
9035;BME280;4552;43.422;24.592;2023-10-13T03:09:08;100271.59;;;10.35;100.00
9035;BME280;4552;43.422;24.592;2023-10-13T03:11:42;100283.72;;;10.45;100.00
9035;BME280;4552;43.422;24.592;2023-10-13T03:14:14;100276.66;;;10.57;100.00
9035;BME280;4552;43.422;24.592;2023-10-13T03:16:50;100278.41;;;10.57;100.00
9035;BME280;4552;43.422;24.592;2023-10-13T03:19:17;100274.06;;;10.55;100.00
9035;BME280;4552;43.422;24.592;2023-10-13T03:21:44;100270.59;;;10.51;100.00
9035;BME280;4552;43.422;24.592;2023-10-13T03:24:20;100280.22;;;10.49;100.00
9035;BME280;4552;43.422;24.592;2023-10-13T03:26:50;100274.03;;;10.58;100.00
9035;BME280;4552;43.422;24.592;2023-10-13T03:29:18;100269.69;;;10.59;99.92
9035;BME280;4552;43.422;24.592;2023-10-13T03:31:47;100256.50;;;10.68;99.53
9035;BME280;4552;43.422;24.592;2023-10-13T03:34:29;100261.72;;;10.71;99.78
9035;BME280;4552;43.422;24.592;2023-10-13T03:36:56;100247.00;;;10.54;100.00
9035;BME280;4552;43.422;24.592;2023-10-13T03:39:23;100243.53;;;10.56;100.00
9035;BME280;4552;43.422;24.592;2023-10-13T03:41:57;100231.28;;;10.56;100.00
9035;BME280;4552;43.422;24.592;2023-10-13T03:44:25;100234.75;;;10.60;100.00
9035;BME280;4552;43.422;24.592;2023-10-13T03:46:56;100241.75;;;10.62;100.00
9035;BME280;4552;43.422;24.592;2023-10-13T03:49:30;100243.41;;;10.71;100.00
9035;BME280;4552;43.422;24.592;2023-10-13T03:52:03;100245.91;;;10.80;100.00
9035;BME280;4552;43.422;24.592;2023-10-13T03:54:31;100244.97;;;10.87;99.96
9035;BME280;4552;43.422;24.592;2023-10-13T03:57:02;100250.19;;;10.87;98.99
9035;BME280;4552;43.422;24.592;2023-10-13T04:06:20;100255.50;;;10.81;100.00
9035;BME280;4552;43.422;24.592;2023-10-13T04:09:07;100253.13;;;10.55;99.77
9035;BME280;4552;43.422;24.592;2023-10-13T04:11:51;100270.50;;;10.67;99.31
9035;BME280;4552;43.422;24.592;2023-10-13T04:24:42;100282.25;;;10.10;100.00
9035;BME280;4552;43.422;24.592;2023-10-13T04:27:47;100297.97;;;10.02;100.00
9035;BME280;4552;43.422;24.592;2023-10-13T04:33:41;100300.53;;;10.16;100.00
9035;BME280;4552;43.422;24.592;2023-10-13T04:36:18;100292.72;;;10.05;100.00
9035;BME280;4552;43.422;24.592;2023-10-13T04:39:02;100300.53;;;10.16;100.00
9035;BME280;4552;43.422;24.592;2023-10-13T04:41:38;100308.38;;;10.14;100.00
9035;BME280;4552;43.422;24.592;2023-10-13T04:44:05;100306.63;;;10.13;100.00
9035;BME280;4552;43.422;24.592;2023-10-13T04:46:46;100318.88;;;10.11;100.00
9035;BME280;4552;43.422;24.592;2023-10-13T04:49:28;100320.56;;;10.18;100.00
9035;BME280;4552;43.422;24.592;2023-10-13T04:52:02;100327.44;;;10.37;100.00
9035;BME280;4552;43.422;24.592;2023-10-13T04:54:39;100327.44;;;10.37;100.00
9035;BME280;4552;43.422;24.592;2023-10-13T04:57:18;100332.69;;;10.34;100.00
9035;BME280;4552;43.422;24.592;2023-10-13T04:59:49;100323.94;;;10.34;100.00
9035;BME280;4552;43.422;24.592;2023-10-13T05:02:34;100343.13;;;10.36;100.00
9035;BME280;4552;43.422;24.592;2023-10-13T05:05:21;100357.00;;;10.44;100.00
9035;BME280;4552;43.422;24.592;2023-10-13T05:08:11;100341.28;;;10.45;100.00
9035;BME280;4552;43.422;24.592;2023-10-13T05:10:55;100356.91;;;10.57;100.00
9035;BME280;4552;43.422;24.592;2023-10-13T05:23:47;100364.44;;;11.03;99.67
9035;BME280;4552;43.422;24.592;2023-10-13T05:26:31;100368.75;;;11.07;100.00
9035;BME280;4552;43.422;24.592;2023-10-13T05:33:10;100380.59;;;11.47;99.52
9035;BME280;4552;43.422;24.592;2023-10-13T05:35:54;100386.53;;;11.67;99.28
9035;BME280;4552;43.422;24.592;2023-10-13T05:38:39;100382.88;;;11.80;97.61
9035;BME280;4552;43.422;24.592;2023-10-13T05:41:24;100367.88;;;11.91;96.87
9035;BME280;4552;43.422;24.592;2023-10-13T05:44:09;100372.16;;;11.99;97.57
9035;BME280;4552;43.422;24.592;2023-10-13T05:46:53;100390.28;;;12.19;97.17
9035;BME280;4552;43.422;24.592;2023-10-13T05:49:59;100390.09;;;12.33;95.59
9035;BME280;4552;43.422;24.592;2023-10-13T05:52:31;100390.03;;;12.37;94.90
9035;BME280;4552;43.422;24.592;2023-10-13T05:55:15;100406.38;;;12.57;94.43
9035;BME280;4552;43.422;24.592;2023-10-13T05:58:01;100392.16;;;12.70;94.02
9035;BME280;4552;43.422;24.592;2023-10-13T06:04:06;100390.78;;;13.04;91.93
9035;BME280;4552;43.422;24.592;2023-10-13T06:06:54;100382.03;;;13.04;91.48
9035;BME280;4552;43.422;24.592;2023-10-13T06:09:38;100386.97;;;13.23;91.43
9035;BME280;4552;43.422;24.592;2023-10-13T06:12:22;100390.06;;;13.45;90.40
9035;BME280;4552;43.422;24.592;2023-10-13T06:21:52;100414.22;;;14.12;87.09
9035;BME280;4552;43.422;24.592;2023-10-13T06:24:36;100414.53;;;14.38;85.25
9035;BME280;4552;43.422;24.592;2023-10-13T06:27:20;100407.44;;;14.42;83.92
9035;BME280;4552;43.422;24.592;2023-10-13T06:56:52;100403.88;;;16.47;74.92
9035;BME280;4552;43.422;24.592;2023-10-13T06:59:19;100399.81;;;16.65;73.49
9035;BME280;4552;43.422;24.592;2023-10-13T07:01:51;100405.22;;;16.60;73.06
9035;BME280;4552;43.422;24.592;2023-10-13T07:04:18;100404.09;;;17.22;73.47
9035;BME280;4552;43.422;24.592;2023-10-13T07:06:47;100411.09;;;17.51;70.46
9035;BME280;4552;43.422;24.592;2023-10-13T07:09:15;100408.34;;;17.54;69.79
9035;BME280;4552;43.422;24.592;2023-10-13T07:12:06;100397.72;;;17.80;69.46
9035;BME280;4552;43.422;24.592;2023-10-13T07:14:45;100409.38;;;18.22;68.44
9035;BME280;4552;43.422;24.592;2023-10-13T07:17:17;100413.38;;;18.34;66.29
9035;BME280;4552;43.422;24.592;2023-10-13T07:19:50;100415.34;;;18.29;66.44
9035;BME280;4552;43.422;24.592;2023-10-13T07:22:20;100420.41;;;18.35;66.06
9035;BME280;4552;43.422;24.592;2023-10-13T07:24:48;100417.25;;;18.48;66.10
9035;BME280;4552;43.422;24.592;2023-10-13T07:27:17;100418.75;;;18.55;66.78
9035;BME280;4552;43.422;24.592;2023-10-13T08:03:50;100435.97;;;19.12;62.10
9035;BME280;4552;43.422;24.592;2023-10-13T08:06:30;100438.44;;;19.16;61.19
9035;BME280;4552;43.422;24.592;2023-10-13T08:08:59;100441.75;;;19.21;61.63
9035;BME280;4552;43.422;24.592;2023-10-13T08:11:54;100418.69;;;19.45;60.48
9035;BME280;4552;43.422;24.592;2023-10-13T08:14:21;100438.78;;;19.50;60.16
9035;BME280;4552;43.422;24.592;2023-10-13T08:16:49;100430.97;;;19.67;60.13
9035;BME280;4552;43.422;24.592;2023-10-13T08:19:27;100425.94;;;19.81;59.16
9035;BME280;4552;43.422;24.592;2023-10-13T08:21:58;100436.44;;;19.84;58.83
9035;BME280;4552;43.422;24.592;2023-10-13T08:24:41;100434.06;;;20.18;58.33
9035;BME280;4552;43.422;24.592;2023-10-13T08:27:22;100425.69;;;20.46;56.94
9035;BME280;4552;43.422;24.592;2023-10-13T08:41:20;100408.09;;;21.52;50.90
9035;BME280;4552;43.422;24.592;2023-10-13T08:44:02;100402.66;;;22.04;49.61
9035;BME280;4552;43.422;24.592;2023-10-13T09:06:44;100399.53;;;22.77;46.34
9035;BME280;4552;43.422;24.592;2023-10-13T09:09:12;100412.31;;;22.72;46.14
9035;BME280;4552;43.422;24.592;2023-10-13T09:12:11;100407.56;;;22.77;45.51
9035;BME280;4552;43.422;24.592;2023-10-13T09:14:39;100414.03;;;22.89;45.63
9035;BME280;4552;43.422;24.592;2023-10-13T09:17:10;100398.78;;;22.91;45.34
9035;BME280;4552;43.422;24.592;2023-10-13T09:19:49;100402.31;;;22.91;45.58
9035;BME280;4552;43.422;24.592;2023-10-13T09:22:23;100413.31;;;23.16;45.13
9035;BME280;4552;43.422;24.592;2023-10-13T09:24:56;100414.69;;;23.23;44.95
9035;BME280;4552;43.422;24.592;2023-10-13T09:27:25;100413.16;;;23.04;43.95
9035;BME280;4552;43.422;24.592;2023-10-13T09:36:36;100418.97;;;23.41;44.45
9035;BME280;4552;43.422;24.592;2023-10-13T09:39:05;100401.66;;;23.48;44.02
9035;BME280;4552;43.422;24.592;2023-10-13T09:41:56;100411.28;;;23.80;43.73
9035;BME280;4552;43.422;24.592;2023-10-13T09:44:25;100420.75;;;23.86;43.68
9035;BME280;4552;43.422;24.592;2023-10-13T09:47:01;100406.56;;;24.00;43.41
9035;BME280;4552;43.422;24.592;2023-10-13T09:49:38;100404.06;;;23.82;43.25
9035;BME280;4552;43.422;24.592;2023-10-13T09:52:13;100399.53;;;23.83;42.83
9035;BME280;4552;43.422;24.592;2023-10-13T09:54:52;100391.38;;;23.70;42.74
9035;BME280;4552;43.422;24.592;2023-10-13T09:57:35;100393.19;;;23.56;42.99
9035;BME280;4552;43.422;24.592;2023-10-13T10:03:48;100391.66;;;23.66;42.90
9035;BME280;4552;43.422;24.592;2023-10-13T10:06:23;100395.03;;;23.69;43.37
9035;BME280;4552;43.422;24.592;2023-10-13T10:09:06;100398.16;;;23.92;42.68
9035;BME280;4552;43.422;24.592;2023-10-13T10:15:17;100397.13;;;24.08;41.35
9035;BME280;4552;43.422;24.592;2023-10-13T10:20:37;100392.06;;;24.04;41.42
9035;BME280;4552;43.422;24.592;2023-10-13T10:23:21;100391.50;;;24.13;40.83
9035;BME280;4552;43.422;24.592;2023-10-13T10:25:48;100403.16;;;24.26;41.16
9035;BME280;4552;43.422;24.592;2023-10-13T10:28:35;100393.03;;;24.45;41.41
9035;BME280;4552;43.422;24.592;2023-10-13T10:31:13;100381.34;;;24.32;40.24
9035;BME280;4552;43.422;24.592;2023-10-13T10:33:42;100385.38;;;24.53;39.46
9035;BME280;4552;43.422;24.592;2023-10-13T10:36:10;100388.25;;;24.50;39.43
9035;BME280;4552;43.422;24.592;2023-10-13T10:38:52;100375.63;;;24.66;38.85
9035;BME280;4552;43.422;24.592;2023-10-13T10:41:27;100369.38;;;24.79;38.12
9035;BME280;4552;43.422;24.592;2023-10-13T10:44:10;100358.31;;;24.98;38.17
9035;BME280;4552;43.422;24.592;2023-10-13T10:53:26;100354.44;;;25.42;36.97
9035;BME280;4552;43.422;24.592;2023-10-13T10:56:07;100346.44;;;25.68;36.94
9035;BME280;4552;43.422;24.592;2023-10-13T10:58:45;100335.38;;;25.72;36.33
9035;BME280;4552;43.422;24.592;2023-10-13T11:04:33;100346.19;;;25.83;35.91
9035;BME280;4552;43.422;24.592;2023-10-13T11:07:00;100344.25;;;25.60;36.83
9035;BME280;4552;43.422;24.592;2023-10-13T11:09:31;100340.91;;;25.44;36.83
9035;BME280;4552;43.422;24.592;2023-10-13T11:12:11;100346.50;;;25.41;37.07
9035;BME280;4552;43.422;24.592;2023-10-13T11:14:42;100349.00;;;25.57;36.86
9035;BME280;4552;43.422;24.592;2023-10-13T11:17:18;100345.03;;;25.87;36.47
9035;BME280;4552;43.422;24.592;2023-10-13T11:20:08;100313.28;;;25.81;35.95
9035;BME280;4552;43.422;24.592;2023-10-13T11:22:51;100333.34;;;25.88;35.96
9035;BME280;4552;43.422;24.592;2023-10-13T11:25:24;100333.25;;;26.02;35.58
9035;BME280;4552;43.422;24.592;2023-10-13T11:28:10;100338.81;;;26.24;36.47
9035;BME280;4552;43.422;24.592;2023-10-13T11:34:10;100336.97;;;25.62;36.35
9035;BME280;4552;43.422;24.592;2023-10-13T11:36:51;100336.56;;;25.81;36.17
9035;BME280;4552;43.422;24.592;2023-10-13T11:39:18;100346.41;;;25.80;36.07
9035;BME280;4552;43.422;24.592;2023-10-13T11:41:51;100336.44;;;25.82;36.07
9035;BME280;4552;43.422;24.592;2023-10-13T11:44:21;100337.66;;;26.16;35.67
9035;BME280;4552;43.422;24.592;2023-10-13T11:47:04;100331.44;;;26.03;35.89
9035;BME280;4552;43.422;24.592;2023-10-13T11:49:58;100330.03;;;26.22;35.66
9035;BME280;4552;43.422;24.592;2023-10-13T11:52:52;100318.09;;;26.26;34.81
9035;BME280;4552;43.422;24.592;2023-10-13T11:55:21;100323.16;;;25.93;35.59
9035;BME280;4552;43.422;24.592;2023-10-13T11:57:51;100319.91;;;25.88;35.32
9035;BME280;4552;43.422;24.592;2023-10-13T12:23:53;100317.03;;;25.91;35.91
9035;BME280;4552;43.422;24.592;2023-10-13T12:26:43;100318.50;;;25.95;35.83
9035;BME280;4552;43.422;24.592;2023-10-13T12:29:11;100307.78;;;25.95;36.32
9035;BME280;4552;43.422;24.592;2023-10-13T12:42:22;100309.66;;;26.07;36.27
9035;BME280;4552;43.422;24.592;2023-10-13T12:45:07;100301.31;;;26.35;35.51
9035;BME280;4552;43.422;24.592;2023-10-13T12:47:51;100306.25;;;26.29;36.10
9035;BME280;4552;43.422;24.592;2023-10-13T12:50:53;100307.88;;;26.31;36.22
9035;BME280;4552;43.422;24.592;2023-10-13T12:53:33;100307.97;;;26.42;35.53
9035;BME280;4552;43.422;24.592;2023-10-13T12:56:22;100307.88;;;26.31;36.26
9035;BME280;4552;43.422;24.592;2023-10-13T12:59:10;100292.13;;;26.02;36.47
9035;BME280;4552;43.422;24.592;2023-10-13T13:01:39;100283.13;;;25.90;36.74
9035;BME280;4552;43.422;24.592;2023-10-13T13:04:09;100306.06;;;25.94;36.69
9035;BME280;4552;43.422;24.592;2023-10-13T13:06:47;100292.09;;;25.89;36.68
9035;BME280;4552;43.422;24.592;2023-10-13T13:09:50;100294.94;;;25.75;37.36
9035;BME280;4552;43.422;24.592;2023-10-13T13:12:38;100297.91;;;25.45;38.17
9035;BME280;4552;43.422;24.592;2023-10-13T13:15:18;100301.97;;;25.51;38.97
9035;BME280;4552;43.422;24.592;2023-10-13T13:17:49;100303.28;;;25.45;38.47
9035;BME280;4552;43.422;24.592;2023-10-13T13:20:26;100307.88;;;25.43;39.06
9035;BME280;4552;43.422;24.592;2023-10-13T13:22:54;100292.66;;;25.44;38.52
9035;BME280;4552;43.422;24.592;2023-10-13T13:25:28;100300.50;;;25.60;37.98
9035;BME280;4552;43.422;24.592;2023-10-13T13:27:58;100305.75;;;25.61;38.08
9035;BME280;4552;43.422;24.592;2023-10-13T13:34:27;100302.66;;;25.67;37.79
9035;BME280;4552;43.422;24.592;2023-10-13T13:36:54;100309.72;;;25.81;37.84
9035;BME280;4552;43.422;24.592;2023-10-13T13:39:21;100306.28;;;25.91;37.95
9035;BME280;4552;43.422;24.592;2023-10-13T13:41:55;100293.75;;;26.04;37.38
9035;BME280;4552;43.422;24.592;2023-10-13T13:44:23;100300.06;;;26.16;36.84
9035;BME280;4552;43.422;24.592;2023-10-13T13:46:55;100300.97;;;26.40;36.40
9035;BME280;4552;43.422;24.592;2023-10-13T13:49:23;100291.41;;;26.48;35.96
9035;BME280;4552;43.422;24.592;2023-10-13T13:51:57;100295.47;;;26.54;36.29
9035;BME280;4552;43.422;24.592;2023-10-13T13:54:30;100287.69;;;26.74;35.86
9035;BME280;4552;43.422;24.592;2023-10-13T13:56:59;100299.28;;;26.75;35.79
9035;BME280;4552;43.422;24.592;2023-10-13T13:59:26;100292.91;;;26.40;36.58
9035;BME280;4552;43.422;24.592;2023-10-13T14:02:00;100295.03;;;26.47;36.39
9035;BME280;4552;43.422;24.592;2023-10-13T14:04:32;100300.19;;;26.50;35.96
9035;BME280;4552;43.422;24.592;2023-10-13T14:07:01;100292.84;;;26.29;35.94
9035;BME280;4552;43.422;24.592;2023-10-13T14:09:32;100290.47;;;26.24;36.15
9035;BME280;4552;43.422;24.592;2023-10-13T14:12:03;100291.91;;;26.17;35.80
9035;BME280;4552;43.422;24.592;2023-10-13T14:14:47;100286.06;;;26.36;35.79
9035;BME280;4552;43.422;24.592;2023-10-13T14:17:16;100290.44;;;26.49;35.79
9035;BME280;4552;43.422;24.592;2023-10-13T14:19:57;100287.06;;;26.58;34.94
9035;BME280;4552;43.422;24.592;2023-10-13T14:22:25;100299.13;;;26.53;35.21
9035;BME280;4552;43.422;24.592;2023-10-13T14:24:55;100295.38;;;26.43;35.45
9035;BME280;4552;43.422;24.592;2023-10-13T14:27:24;100292.31;;;26.24;35.91
9035;BME280;4552;43.422;24.592;2023-10-13T14:30:12;100294.91;;;26.25;35.69
9035;BME280;4552;43.422;24.592;2023-10-13T14:32:48;100285.66;;;26.17;36.01
9035;BME280;4552;43.422;24.592;2023-10-13T14:35:15;100284.38;;;25.97;36.12
9035;BME280;4552;43.422;24.592;2023-10-13T14:37:44;100280.22;;;25.93;36.76
9035;BME280;4552;43.422;24.592;2023-10-13T14:40:12;100288.03;;;25.96;36.20
9035;BME280;4552;43.422;24.592;2023-10-13T14:42:40;100298.88;;;25.70;37.05
9035;BME280;4552;43.422;24.592;2023-10-13T14:55:14;100298.25;;;25.54;38.31
9035;BME280;4552;43.422;24.592;2023-10-13T14:58:04;100301.22;;;25.62;38.18
9035;BME280;4552;43.422;24.592;2023-10-13T15:04:22;100301.25;;;25.49;38.19
9035;BME280;4552;43.422;24.592;2023-10-13T15:06:55;100286.94;;;25.36;38.37
9035;BME280;4552;43.422;24.592;2023-10-13T15:09:25;100299.44;;;25.23;38.34
9035;BME280;4552;43.422;24.592;2023-10-13T15:11:55;100302.97;;;25.11;38.47
9035;BME280;4552;43.422;24.592;2023-10-13T15:14:22;100299.09;;;25.15;38.90
9035;BME280;4552;43.422;24.592;2023-10-13T15:16:51;100300.59;;;25.19;38.83
9035;BME280;4552;43.422;24.592;2023-10-13T15:19:18;100305.53;;;25.12;39.04
9035;BME280;4552;43.422;24.592;2023-10-13T15:21:45;100295.97;;;25.08;39.07
9035;BME280;4552;43.422;24.592;2023-10-13T15:24:20;100295.03;;;24.83;42.75
9035;BME280;4552;43.422;24.592;2023-10-13T15:26:52;100293.56;;;24.65;39.92
9035;BME280;4552;43.422;24.592;2023-10-13T15:29:28;100302.53;;;24.64;42.07
9035;BME280;4552;43.422;24.592;2023-10-13T16:02:15;100320.06;;;23.71;42.12
9035;BME280;4552;43.422;24.592;2023-10-13T16:04:51;100320.94;;;23.71;42.11
9035;BME280;4552;43.422;24.592;2023-10-13T16:07:34;100311.00;;;23.59;42.24
9035;BME280;4552;43.422;24.592;2023-10-13T16:10:01;100313.50;;;23.62;42.51
9035;BME280;4552;43.422;24.592;2023-10-13T16:12:36;100329.97;;;23.41;42.80
9035;BME280;4552;43.422;24.592;2023-10-13T16:25:42;100331.28;;;23.18;43.05
9035;BME280;4552;43.422;24.592;2023-10-13T16:28:40;100341.00;;;23.19;43.15
9035;BME280;4552;43.422;24.592;2023-10-13T16:31:10;100336.84;;;23.00;43.82
9035;BME280;4552;43.422;24.592;2023-10-13T16:33:54;100323.94;;;22.92;44.02
9035;BME280;4552;43.422;24.592;2023-10-13T16:36:24;100327.72;;;22.88;44.52
9035;BME280;4552;43.422;24.592;2023-10-13T16:38:53;100325.50;;;22.81;44.93
9035;BME280;4552;43.422;24.592;2023-10-13T16:41:40;100324.84;;;22.62;45.47
9035;BME280;4552;43.422;24.592;2023-10-13T16:44:10;100337.22;;;22.63;45.12
9035;BME280;4552;43.422;24.592;2023-10-13T16:46:39;100337.56;;;22.72;45.41
9035;BME280;4552;43.422;24.592;2023-10-13T16:49:20;100340.06;;;22.60;45.05
9035;BME280;4552;43.422;24.592;2023-10-13T16:51:52;100328.03;;;22.53;46.54
9035;BME280;4552;43.422;24.592;2023-10-13T16:54:38;100328.16;;;22.34;46.76
9035;BME280;4552;43.422;24.592;2023-10-13T16:57:25;100342.91;;;22.24;46.67
9035;BME280;4552;43.422;24.592;2023-10-13T16:59:55;100336.25;;;22.00;48.53
9035;BME280;4552;43.422;24.592;2023-10-13T17:06:07;100335.28;;;21.51;51.60
9035;BME280;4552;43.422;24.592;2023-10-13T17:08:35;100330.69;;;21.38;50.67
9035;BME280;4552;43.422;24.592;2023-10-13T17:11:09;100328.88;;;21.21;53.27
9035;BME280;4552;43.422;24.592;2023-10-13T17:13:38;100336.16;;;21.18;51.80
9035;BME280;4552;43.422;24.592;2023-10-13T17:22:51;100342.78;;;20.74;52.98
9035;BME280;4552;43.422;24.592;2023-10-13T17:25:23;100341.34;;;20.67;53.43
9035;BME280;4552;43.422;24.592;2023-10-13T17:27:51;100336.75;;;20.51;53.40
9035;BME280;4552;43.422;24.592;2023-10-13T18:20:49;100329.72;;;18.93;61.77
9035;BME280;4552;43.422;24.592;2023-10-13T18:23:40;100332.50;;;18.90;61.91
9035;BME280;4552;43.422;24.592;2023-10-13T18:26:23;100344.44;;;18.78;62.22
9035;BME280;4552;43.422;24.592;2023-10-13T18:28:53;100334.66;;;18.80;61.80
9035;BME280;4552;43.422;24.592;2023-10-13T18:51:33;100314.69;;;18.04;65.61
9035;BME280;4552;43.422;24.592;2023-10-13T18:54:00;100333.69;;;17.92;67.01
9035;BME280;4552;43.422;24.592;2023-10-13T18:56:29;100314.28;;;17.92;66.11
9035;BME280;4552;43.422;24.592;2023-10-13T18:59:04;100322.28;;;17.90;67.24
9035;BME280;4552;43.422;24.592;2023-10-13T19:08:17;100308.03;;;17.71;67.61
9035;BME280;4552;43.422;24.592;2023-10-13T19:11:01;100317.84;;;17.68;68.18
9035;BME280;4552;43.422;24.592;2023-10-13T19:13:42;100325.13;;;17.86;66.83
9035;BME280;4552;43.422;24.592;2023-10-13T19:45:16;100324.00;;;17.91;67.86
9035;BME280;4552;43.422;24.592;2023-10-13T19:47:44;100320.50;;;17.68;69.68
9035;BME280;4552;43.422;24.592;2023-10-13T19:50:11;100319.34;;;17.75;69.25
9035;BME280;4552;43.422;24.592;2023-10-13T19:52:40;100322.50;;;17.61;69.95
9035;BME280;4552;43.422;24.592;2023-10-13T19:55:08;100310.50;;;17.51;70.39
9035;BME280;4552;43.422;24.592;2023-10-13T19:57:45;100324.47;;;17.55;69.76
9035;BME280;4552;43.422;24.592;2023-10-13T20:00:18;100322.88;;;17.51;70.72
9035;BME280;4552;43.422;24.592;2023-10-13T20:06:24;100318.69;;;17.45;70.57
9035;BME280;4552;43.422;24.592;2023-10-13T20:08:53;100318.09;;;17.36;70.61
9035;BME280;4552;43.422;24.592;2023-10-13T20:11:21;100321.66;;;17.35;71.23
9035;BME280;4552;43.422;24.592;2023-10-13T20:13:51;100324.88;;;17.43;71.04
9035;BME280;4552;43.422;24.592;2023-10-13T20:36:34;100346.69;;;17.24;71.18
9035;BME280;4552;43.422;24.592;2023-10-13T20:39:04;100335.41;;;17.19;70.91
9035;BME280;4552;43.422;24.592;2023-10-13T20:41:31;100342.25;;;17.00;70.44
9035;BME280;4552;43.422;24.592;2023-10-13T20:59:00;100310.84;;;16.64;71.06
9035;BME280;4552;43.422;24.592;2023-10-13T21:08:18;100314.03;;;16.47;72.47
9035;BME280;4552;43.422;24.592;2023-10-13T21:10:55;100302.47;;;16.22;74.37
9035;BME280;4552;43.422;24.592;2023-10-13T21:13:41;100308.56;;;16.24;74.89
9035;BME280;4552;43.422;24.592;2023-10-13T21:23:04;100303.91;;;16.03;77.41
9035;BME280;4552;43.422;24.592;2023-10-13T21:25:45;100308.66;;;15.92;78.18
9035;BME280;4552;43.422;24.592;2023-10-13T21:28:15;100302.88;;;15.80;78.55
9035;BME280;4552;43.422;24.592;2023-10-13T21:31:04;100295.19;;;15.72;79.00
9035;BME280;4552;43.422;24.592;2023-10-13T21:33:43;100281.50;;;15.58;79.84
9035;BME280;4552;43.422;24.592;2023-10-13T21:36:26;100285.44;;;15.43;79.74
9035;BME280;4552;43.422;24.592;2023-10-13T21:38:56;100288.50;;;15.59;80.31
9035;BME280;4552;43.422;24.592;2023-10-13T21:41:25;100287.91;;;15.49;78.76
9035;BME280;4552;43.422;24.592;2023-10-13T21:46:50;100307.94;;;15.56;78.61